AirNav   Air Wisconsin Up To $57,000 Bonus
 
 592 users online  

5CL0 Grupe Ranch Airport
Mariposa, California, USA

GOING TO MARIPOSA?


FAA INFORMATION EFFECTIVE 03 NOVEMBER 2022

Location

FAA Identifier: 5CL0
Lat/Long: 37-20-25.7900N 119-51-43.5800W
37-20.429833N 119-51.726333W
37.3404972,-119.8621056
(estimated)
Elevation: 1625 ft. / 495 m (estimated)
Variation: 15E (1990)
From city: 10 miles SE of MARIPOSA, CA
Time zone: UTC -8 (UTC -7 during Daylight Saving Time)
Zip code: 95338

Airport Operations

Airport use: Private use. Permission required prior to landing
Activation date: 07/1993
Control tower: no
ARTCC: OAKLAND CENTER
FSS: RANCHO MURIETA FLIGHT SERVICE STATION
Attendance: UNATNDD
Wind indicator: yes
Segmented circle: no

Airport Communications

WX AWOS-3 at MPI (13 nm NW): 135.6 (209-966-2912)

Nearby radio navigation aids

VOR radial/distance  VOR name  Freq  Var
FRAr301/19.1FRIANT VORTAC115.6017E
HYPr059/26.7EL NIDO VOR/DME114.2015E

Airport Services

Runway Information

Runway 9/27

Dimensions: 2800 x 50 ft. / 853 x 15 m
Surface: asphalt
RUNWAY 9  RUNWAY 27
Traffic pattern: leftleft
Obstructions: none15 ft. pline, 100 ft. from runway

Airport Ownership and Management from official FAA records

Ownership: Privately-owned
Owner: THE MARK GRUPE FAMILY 2012 TRUST
PO BOX 207007
STOCKTON, CA 95267
Phone 209-609-8310
Manager: KELLY WILLIAMS
PO BOX 207007
STOCKTON, CA 95267
Phone 209-401-3094
209-966-5578

Additional Remarks

FOR CD CTC OAKLAND ARTCC AT 510-745-3380.

Instrument Procedures

There are no published instrument procedures at 5CL0.

Some nearby airports with instrument procedures:

KMPI - Mariposa-Yosemite Airport (13 nm NW)
KMAE - Madera Municipal Airport (24 nm SW)
KMCE - Merced Regional Airport/Macready Field (31 nm W)
KMER - Castle Airport (34 nm W)
KFAT - Fresno Yosemite International Airport (35 nm S)
 
Loc | Ops | Rwys | IFR | FBO | Links
Com | Nav | Svcs | Stats | Notes
Area around 5CL0 (Grupe Ranch Airport)
 
Road maps at: MapQuest Bing Google
 
Aerial photo
No photo
 
Sectional chart

 
Airport distance calculator
Flying to Grupe Ranch Airport? Find the distance to fly.

From to 5CL0

Sunrise and sunset
Times for 28-Nov-2022
 Local
(UTC-8)
 Zulu
(UTC)
Morning civil twilight06:2514:25
Sunrise06:5314:53
Sunset16:4200:42
Evening civil twilight17:1001:10

Current date and time
Zulu (UTC)  28-Nov-2022 12:22:25
Local (UTC-8)  28-Nov-2022 04:22:25
 
METAR
KMAE 
25nm SW 
281153Z AUTO 00000KT 5SM HZ CLR 03/00 A2998 RMK AO2 SLP150 T00280000 10067 20028 55006
KMCE 
31nm W 
281153Z AUTO 16003KT 9SM CLR 03/01 A2996 RMK AO2 SLP146 T00330006 10072 20017 55005
KMER 
34nm W 
281155Z AUTO 00000KT 8SM CLR 01/01 A2997 RMK AO1
KFAT 
34nm S 
281153Z 08003KT 7SM SCT200 06/02 A2997 RMK AO2 SLP149 T00610022 10089 20056 55005 $
KO32 
45nm SE 
281155Z AUTO 00000KT 9SM CLR 04/02 A2996 RMK AO2 T00370023 $
KO22 
49nm NW 
281155Z AUTO 00000KT 10SM FEW080 02/00 A2995 RMK A01
TAF
KMCE 
31nm W 
281133Z 2812/2912 VRB03KT P6SM SKC
KMER 
34nm W 
281133Z 2812/2912 VRB05KT P6SM SKC= TAF KMOD 281132Z 2812/2912 00000KT 3SM BR SCT200 FM281800 32011KT P6SM SCT150
KFAT 
34nm S 
281133Z 2812/2912 36004KT 5SM HZ BR SCT250 FM282100 30008KT 6SM HZ FEW250 FM290900 31006KT 4SM HZ SKC
NOTAMs
Click for the latest NOTAMs
NOTAMs are issued by the DoD/FAA and will open in a separate window not controlled by AirNav.

 

 
 

Would you like to see your business listed on this page?

 If your business provides an interesting product or service to pilots, flight crews, aircraft, or users of the Grupe Ranch Airport, you should consider listing it here.  To start the listing process, click on the button below
 
Add a business
 

Other Pages about Grupe Ranch Airport

Update a link
 
Copyright © AirNav, LLC. All rights reserved. Privacy Policy  Contact